W6NWF Weather Reports


Display with metric or nautical units.
time (UTC)temp
F
wind
direction
speed
MPH
gust
MPH
rain 1hr
in
rain 24hr
in
rain mn
in
humidity
%
barometer
mb
20191016174524 83 210 1.0 5.0 0.00 0.00 0.00 32 1012.6
20191016173028 82 200 1.0 4.0 0.00 0.00 0.00 34 1012.8
20191016171519 80 225 0.0 3.0 0.00 0.00 0.00 35 1013.1
20191016170021 78 195 1.0 3.0 0.00 0.00 0.00 37 1013.1
20191016164506 76 196 0.0 3.0 0.00 0.00 0.00 41 1013.1
20191016163226 74 195 0.0 4.0 0.00 0.00 0.00 46 1013.0
20191016161715 73 197 3.0 5.0 0.00 0.00 0.00 50 1013.1
20191016160311 69 192 0.0 1.0 0.00 0.00 0.00 50 1013.2
20191016154623 66 192 0.0 1.0 0.00 0.00 0.00 61 1013.2
20191016153129 63 192 0.0 1.0 0.00 0.00 0.00 71 1013.1
20191016151637 59 192 0.0 0.0 0.00 0.00 0.00 79 1013.2
20191016150113 55 192 0.0 0.0 0.00 0.00 0.00 85 1013.2
20191016144640 53 192 0.0 0.0 0.00 0.00 0.00 86 1013.1
20191016143128 53 192 0.0 0.0 0.00 0.00 0.00 86 1013.2
20191016141558 52 192 0.0 0.0 0.00 0.00 0.00 86 1013.1
20191016140111 52 192 0.0 0.0 0.00 0.00 0.00 86 1013.1
20191016134545 52 192 0.0 0.0 0.00 0.00 0.00 86 1012.9
20191016133050 52 192 0.0 0.0 0.00 0.00 0.00 86 1012.8
20191016131551 53 192 0.0 0.0 0.00 0.00 0.00 86 1012.5
20191016130123 53 192 0.0 0.0 0.00 0.00 0.00 86 1012.6
20191016124619 53 192 0.0 0.0 0.00 0.00 0.00 86 1012.6
20191016123107 53 192 0.0 0.0 0.00 0.00 0.00 87 1012.5
20191016121626 53 192 0.0 0.0 0.00 0.00 0.00 87 1012.6
20191016120044 53 192 0.0 0.0 0.00 0.00 0.00 87 1012.7
20191016114630 54 192 0.0 0.0 0.00 0.00 0.00 88 1012.5
20191016113057 54 192 0.0 0.0 0.00 0.00 0.00 88 1012.5
20191016111535 54 192 0.0 0.0 0.00 0.00 0.00 87 1012.6
20191016110101 54 192 0.0 0.0 0.00 0.00 0.00 87 1012.5
20191016104537 54 192 0.0 0.0 0.00 0.00 0.00 86 1012.5
20191016103039 55 192 0.0 0.0 0.00 0.00 0.00 86 1012.8
20191016101547 55 192 0.0 0.0 0.00 0.00 0.00 86 1012.9
20191016100014 55 192 0.0 0.0 0.00 0.00 0.00 86 1012.9
20191016094524 55 192 0.0 0.0 0.00 0.00 0.00 86 1013.1
20191016093014 56 192 0.0 0.0 0.00 0.00 0.00 86 1013.1
20191016091537 56 192 0.0 0.0 0.00 0.00 0.00 87 1013.3
20191016090015 56 192 0.0 0.0 0.00 0.00 0.00 86 1013.5
20191016084508 56 192 0.0 0.0 0.00 0.00 0.00 86 1013.5
20191016083004 57 192 0.0 0.0 0.00 0.00 0.00 85 1013.5
20191016081510 57 192 0.0 0.0 0.00 0.00 0.00 85 1013.5
20191016080144 58 192 0.0 0.0 0.00 0.00 0.00 83 1013.5
20191016074752 58 192 0.0 0.0 0.00 0.00 0.00 83 1013.4
20191016073149 58 192 0.0 1.0 0.00 0.00 0.00 83 1013.4
20191016071709 58 192 0.0 0.0 0.00 0.00 0.00 84 1013.5
20191016070233 59 192 0.0 0.0 0.00 0.00 0.00 83 1013.6
20191016064803 59 192 0.0 0.0 0.00 0.00 0.00 82 1013.6
20191016063138 60 192 0.0 0.0 0.00 0.00 0.00 81 1013.8
20191016061653 60 192 0.0 0.0 0.00 0.00 0.00 80 1013.8
20191016060128 61 192 0.0 0.0 0.00 0.00 0.00 79 1013.8
20191016054644 61 192 0.0 0.0 0.00 0.00 0.00 78 1013.9
20191016053129 61 192 0.0 0.0 0.00 0.00 0.00 76 1013.7
20191016051811 62 192 0.0 0.0 0.00 0.00 0.00 77 1013.7
20191016050150 62 192 0.0 0.0 0.00 0.00 0.00 78 1013.9
20191016044648 63 192 0.0 0.0 0.00 0.00 0.00 76 1013.6
20191016043155 63 192 0.0 0.0 0.00 0.00 0.00 75 1013.5
20191016041703 64 192 0.0 0.0 0.00 0.00 0.00 73 1013.2
20191016040129 64 192 0.0 0.0 0.00 0.00 0.00 74 1013.1
20191016034715 65 192 0.0 0.0 0.00 0.00 0.00 72 1013.2
20191016033209 66 192 0.0 0.0 0.00 0.00 0.00 72 1013.0
20191016031709 67 192 0.0 0.0 0.00 0.00 0.00 71 1013.0
20191016030138 68 192 0.0 0.0 0.00 0.00 0.00 71 1013.0
20191016024653 69 192 0.0 0.0 0.00 0.00 0.00 69 1013.0
20191016023123 70 192 0.0 0.0 0.00 0.00 0.00 68 1012.9
20191016021614 71 192 0.0 0.0 0.00 0.00 0.00 67 1012.8
20191016020136 72 192 0.0 2.0 0.00 0.00 0.00 66 1012.7
20191016014615 73 192 0.0 0.0 0.00 0.00 0.00 62 1012.6
20191016013140 75 192 0.0 0.0 0.00 0.00 0.00 60 1012.4
20191016011636 76 192 0.0 4.0 0.00 0.00 0.00 57 1012.3
20191016010128 78 207 0.0 3.0 0.00 0.00 0.00 53 1012.1
20191016004614 80 211 0.0 4.0 0.00 0.00 0.00 48 1012.0
20191016003200 80 239 1.0 4.0 0.00 0.00 0.00 47 1011.9
20191016001617 82 192 2.0 5.0 0.00 0.00 0.00 44 1011.8
20191016000130 82 185 2.0 6.0 0.00 0.00 0.00 45 1011.8
20191015234646 82 210 2.0 7.0 0.00 0.00 0.00 46 1011.7
20191015233101 83 234 1.0 7.0 0.00 0.00 0.00 44 1011.8
20191015231655 84 213 3.0 7.0 0.00 0.00 0.00 41 1011.7
20191015230118 85 193 2.0 8.0 0.00 0.00 0.00 41 1011.8
20191015224639 85 267 1.0 9.0 0.00 0.00 0.00 42 1011.8
20191015223120 84 182 2.0 8.0 0.00 0.00 0.00 43 1012.0
20191015221712 84 203 1.0 6.0 0.00 0.00 0.00 44 1012.0
20191015220052 83 218 2.0 8.0 0.00 0.00 0.00 45 1012.1
20191015214526 82 202 3.0 8.0 0.00 0.00 0.00 46 1012.2
20191015213108 81 186 2.0 9.0 0.00 0.00 0.00 47 1012.5
20191015211516 81 226 5.0 7.0 0.00 0.00 0.00 49 1012.8
20191015210014 81 248 2.0 9.0 0.00 0.00 0.00 49 1013.0
20191015204532 80 244 4.0 11.0 0.00 0.00 0.00 50 1013.3
20191015203039 80 171 4.0 9.0 0.00 0.00 0.00 50 1013.5
20191015201517 80 207 2.0 9.0 0.00 0.00 0.00 50 1013.8
20191015200013 81 192 1.0 9.0 0.00 0.00 0.00 50 1014.1
20191015194508 81 228 4.0 9.0 0.00 0.00 0.00 47 1014.3
20191015193002 80 211 4.0 8.0 0.00 0.00 0.00 45 1014.3
20191015191658 79 257 2.0 8.0 0.00 0.00 0.00 47 1014.5
20191015190242 78 210 2.0 8.0 0.00 0.00 0.00 49 1014.6
20191015184633 77 210 3.0 6.0 0.00 0.00 0.00 53 1014.9
20191015183116 75 204 3.0 6.0 0.00 0.00 0.00 56 1015.0
20191015181651 74 207 2.0 5.0 0.00 0.00 0.00 58 1015.3
20191015180117 72 207 0.0 4.0 0.00 0.00 0.00 61 1015.5
20191015174558 71 220 1.0 4.0 0.00 0.00 0.00 64 1015.6